Algodones, New Mexico
Current Conditions -  °F | °C
As of 4:52 AM on Friday 28 Nov 2014 (Local Time) from KABQ Reporting Station
Few Clouds Few Clouds  
Wind Chill: 33°   Ceiling: Unl
Heat Index: 37°   Visibility: 10mi
Dew Point: 19°   Wind: 5mph
Humidity: 48%   Direction: 350°N
Pressure: 30.28"   Gusts: NA
Location:  35.38°N, 106.48°W
Report Text: KABQ 281152Z 35004KT 10SM FEW250 03/M07 A3028 RMK AO2 SLP231 T00281072 10067 20011 56007
Loading
Personal Weather Stations






























Interactive Weather Map New forecast layout! Learn more

10-Day Weather Forecast

Advertisements
Track Severe Weather on mobile